sensor_id;sensor_type;location;lat;lon;timestamp;temperature;humidity
78467;SHT31;67759;51.972;5.650;2023-09-12T00:01:47;26.8;56.6
78467;SHT31;67759;51.972;5.650;2023-09-12T00:04:18;26.8;56.5
78467;SHT31;67759;51.972;5.650;2023-09-12T00:06:48;26.9;56.6
78467;SHT31;67759;51.972;5.650;2023-09-12T00:09:17;27.0;56.7
78467;SHT31;67759;51.972;5.650;2023-09-12T00:11:47;27.0;55.8
78467;SHT31;67759;51.972;5.650;2023-09-12T00:14:18;27.0;55.3
78467;SHT31;67759;51.972;5.650;2023-09-12T00:16:48;27.0;53.8
78467;SHT31;67759;51.972;5.650;2023-09-12T00:19:20;27.0;55.1
78467;SHT31;67759;51.972;5.650;2023-09-12T00:21:49;26.9;54.2
78467;SHT31;67759;51.972;5.650;2023-09-12T00:24:20;26.9;54.7
78467;SHT31;67759;51.972;5.650;2023-09-12T00:26:50;26.9;54.0
78467;SHT31;67759;51.972;5.650;2023-09-12T00:29:20;26.9;53.9
78467;SHT31;67759;51.972;5.650;2023-09-12T00:31:49;26.9;53.5
78467;SHT31;67759;51.972;5.650;2023-09-12T00:34:19;26.9;54.0
78467;SHT31;67759;51.972;5.650;2023-09-12T00:36:48;26.9;54.0
78467;SHT31;67759;51.972;5.650;2023-09-12T00:39:18;26.9;54.8
78467;SHT31;67759;51.972;5.650;2023-09-12T00:41:47;26.9;54.6
78467;SHT31;67759;51.972;5.650;2023-09-12T00:44:18;26.9;53.8
78467;SHT31;67759;51.972;5.650;2023-09-12T00:46:49;26.9;54.6
78467;SHT31;67759;51.972;5.650;2023-09-12T00:49:21;26.9;54.2
78467;SHT31;67759;51.972;5.650;2023-09-12T00:51:52;26.9;54.8
78467;SHT31;67759;51.972;5.650;2023-09-12T00:54:25;26.9;54.3
78467;SHT31;67759;51.972;5.650;2023-09-12T00:56:54;26.8;53.4
78467;SHT31;67759;51.972;5.650;2023-09-12T00:59:24;26.8;55.2
78467;SHT31;67759;51.972;5.650;2023-09-12T01:01:56;26.8;54.3
78467;SHT31;67759;51.972;5.650;2023-09-12T01:04:27;26.8;55.8
78467;SHT31;67759;51.972;5.650;2023-09-12T01:06:57;26.8;55.8
78467;SHT31;67759;51.972;5.650;2023-09-12T01:09:28;26.8;57.3
78467;SHT31;67759;51.972;5.650;2023-09-12T01:11:59;26.8;57.2
78467;SHT31;67759;51.972;5.650;2023-09-12T01:14:30;26.7;57.5
78467;SHT31;67759;51.972;5.650;2023-09-12T01:17:00;26.7;57.7
78467;SHT31;67759;51.972;5.650;2023-09-12T01:19:30;26.7;57.5
78467;SHT31;67759;51.972;5.650;2023-09-12T01:22:20;26.6;57.8
78467;SHT31;67759;51.972;5.650;2023-09-12T01:25:45;26.6;58.2
78467;SHT31;67759;51.972;5.650;2023-09-12T01:28:34;26.7;54.8
78467;SHT31;67759;51.972;5.650;2023-09-12T01:31:08;26.8;56.2
78467;SHT31;67759;51.972;5.650;2023-09-12T01:33:39;27.0;55.8
78467;SHT31;67759;51.972;5.650;2023-09-12T01:36:10;27.1;55.6
78467;SHT31;67759;51.972;5.650;2023-09-12T01:38:40;27.2;51.7
78467;SHT31;67759;51.972;5.650;2023-09-12T01:41:10;27.3;50.7
78467;SHT31;67759;51.972;5.650;2023-09-12T01:43:41;27.4;50.9
78467;SHT31;67759;51.972;5.650;2023-09-12T01:46:15;27.4;51.6
78467;SHT31;67759;51.972;5.650;2023-09-12T01:48:48;27.4;50.7
78467;SHT31;67759;51.972;5.650;2023-09-12T01:51:22;27.4;51.0
78467;SHT31;67759;51.972;5.650;2023-09-12T01:53:55;27.4;50.8
78467;SHT31;67759;51.972;5.650;2023-09-12T01:56:25;27.3;51.5
78467;SHT31;67759;51.972;5.650;2023-09-12T01:58:55;27.2;51.8
78467;SHT31;67759;51.972;5.650;2023-09-12T02:01:25;27.1;52.5
78467;SHT31;67759;51.972;5.650;2023-09-12T02:03:55;27.1;52.4
78467;SHT31;67759;51.972;5.650;2023-09-12T02:06:24;27.1;51.5
78467;SHT31;67759;51.972;5.650;2023-09-12T02:08:54;27.0;52.2
78467;SHT31;67759;51.972;5.650;2023-09-12T02:11:28;26.9;51.6
78467;SHT31;67759;51.972;5.650;2023-09-12T02:13:57;26.9;53.3
78467;SHT31;67759;51.972;5.650;2023-09-12T02:16:27;26.8;52.6
78467;SHT31;67759;51.972;5.650;2023-09-12T02:18:57;26.7;53.2
78467;SHT31;67759;51.972;5.650;2023-09-12T02:21:26;26.7;52.0
78467;SHT31;67759;51.972;5.650;2023-09-12T02:23:56;26.6;52.5
78467;SHT31;67759;51.972;5.650;2023-09-12T02:26:26;26.6;54.2
78467;SHT31;67759;51.972;5.650;2023-09-12T02:28:55;26.5;52.7
78467;SHT31;67759;51.972;5.650;2023-09-12T02:31:27;26.5;53.3
78467;SHT31;67759;51.972;5.650;2023-09-12T02:33:57;26.4;52.3
78467;SHT31;67759;51.972;5.650;2023-09-12T02:36:28;26.3;53.3
78467;SHT31;67759;51.972;5.650;2023-09-12T02:38:58;26.3;53.2
78467;SHT31;67759;51.972;5.650;2023-09-12T02:41:28;26.3;53.8
78467;SHT31;67759;51.972;5.650;2023-09-12T02:43:58;26.2;54.3
78467;SHT31;67759;51.972;5.650;2023-09-12T02:46:27;26.2;54.6
78467;SHT31;67759;51.972;5.650;2023-09-12T02:48:57;26.2;54.2
78467;SHT31;67759;51.972;5.650;2023-09-12T02:51:28;26.2;53.8
78467;SHT31;67759;51.972;5.650;2023-09-12T02:54:00;26.1;54.5
78467;SHT31;67759;51.972;5.650;2023-09-12T02:56:30;26.1;54.2
78467;SHT31;67759;51.972;5.650;2023-09-12T02:59:01;26.1;52.6
78467;SHT31;67759;51.972;5.650;2023-09-12T03:01:33;26.2;53.8
78467;SHT31;67759;51.972;5.650;2023-09-12T03:04:03;26.3;54.4
78467;SHT31;67759;51.972;5.650;2023-09-12T03:06:32;26.3;52.8
78467;SHT31;67759;51.972;5.650;2023-09-12T03:09:04;26.2;52.3
78467;SHT31;67759;51.972;5.650;2023-09-12T03:11:34;26.3;52.1
78467;SHT31;67759;51.972;5.650;2023-09-12T03:14:07;26.4;51.4
78467;SHT31;67759;51.972;5.650;2023-09-12T03:16:36;26.5;51.8
78467;SHT31;67759;51.972;5.650;2023-09-12T03:19:07;26.6;51.2
78467;SHT31;67759;51.972;5.650;2023-09-12T03:21:36;26.6;51.8
78467;SHT31;67759;51.972;5.650;2023-09-12T03:24:06;26.6;50.3
78467;SHT31;67759;51.972;5.650;2023-09-12T03:26:36;26.6;51.1
78467;SHT31;67759;51.972;5.650;2023-09-12T03:29:06;26.6;51.1
78467;SHT31;67759;51.972;5.650;2023-09-12T03:31:37;26.5;52.0
78467;SHT31;67759;51.972;5.650;2023-09-12T03:34:08;26.5;52.2
78467;SHT31;67759;51.972;5.650;2023-09-12T03:36:38;26.5;50.6
78467;SHT31;67759;51.972;5.650;2023-09-12T03:39:07;26.5;51.2
78467;SHT31;67759;51.972;5.650;2023-09-12T03:41:41;26.5;52.2
78467;SHT31;67759;51.972;5.650;2023-09-12T03:44:11;26.4;52.5
78467;SHT31;67759;51.972;5.650;2023-09-12T03:46:40;26.4;50.6
78467;SHT31;67759;51.972;5.650;2023-09-12T03:49:10;26.4;51.0
78467;SHT31;67759;51.972;5.650;2023-09-12T03:51:39;26.4;52.7
78467;SHT31;67759;51.972;5.650;2023-09-12T03:54:09;26.4;52.6
78467;SHT31;67759;51.972;5.650;2023-09-12T03:56:40;26.3;51.5
78467;SHT31;67759;51.972;5.650;2023-09-12T03:59:09;26.4;53.5
78467;SHT31;67759;51.972;5.650;2023-09-12T04:01:39;26.4;53.8
78467;SHT31;67759;51.972;5.650;2023-09-12T04:04:09;26.4;51.5
78467;SHT31;67759;51.972;5.650;2023-09-12T04:06:38;26.5;52.7
78467;SHT31;67759;51.972;5.650;2023-09-12T04:09:08;26.5;50.2
78467;SHT31;67759;51.972;5.650;2023-09-12T04:11:38;26.5;52.4
78467;SHT31;67759;51.972;5.650;2023-09-12T04:14:08;26.5;52.7
78467;SHT31;67759;51.972;5.650;2023-09-12T04:16:40;26.4;52.4
78467;SHT31;67759;51.972;5.650;2023-09-12T04:19:11;26.4;51.7
78467;SHT31;67759;51.972;5.650;2023-09-12T04:21:41;26.4;51.4
78467;SHT31;67759;51.972;5.650;2023-09-12T04:24:13;26.3;52.0
78467;SHT31;67759;51.972;5.650;2023-09-12T04:26:45;26.3;52.5
78467;SHT31;67759;51.972;5.650;2023-09-12T04:29:15;26.2;52.2
78467;SHT31;67759;51.972;5.650;2023-09-12T04:31:45;26.1;53.3
78467;SHT31;67759;51.972;5.650;2023-09-12T04:34:15;26.1;52.7
78467;SHT31;67759;51.972;5.650;2023-09-12T04:36:45;26.2;51.7
78467;SHT31;67759;51.972;5.650;2023-09-12T04:39:14;26.2;51.9
78467;SHT31;67759;51.972;5.650;2023-09-12T04:41:44;26.1;53.3
78467;SHT31;67759;51.972;5.650;2023-09-12T04:44:14;26.1;52.7
78467;SHT31;67759;51.972;5.650;2023-09-12T04:46:44;26.1;52.7
78467;SHT31;67759;51.972;5.650;2023-09-12T04:49:14;26.2;52.6
78467;SHT31;67759;51.972;5.650;2023-09-12T04:51:43;26.3;50.8
78467;SHT31;67759;51.972;5.650;2023-09-12T04:54:13;26.4;52.1
78467;SHT31;67759;51.972;5.650;2023-09-12T04:56:44;26.4;52.4
78467;SHT31;67759;51.972;5.650;2023-09-12T04:59:14;26.4;52.5
78467;SHT31;67759;51.972;5.650;2023-09-12T05:01:44;26.4;50.9
78467;SHT31;67759;51.972;5.650;2023-09-12T05:04:14;26.4;51.2
78467;SHT31;67759;51.972;5.650;2023-09-12T05:06:45;26.3;50.7
78467;SHT31;67759;51.972;5.650;2023-09-12T05:09:16;26.2;51.0
78467;SHT31;67759;51.972;5.650;2023-09-12T05:11:48;26.1;52.3
78467;SHT31;67759;51.972;5.650;2023-09-12T05:14:18;26.1;52.6
78467;SHT31;67759;51.972;5.650;2023-09-12T05:16:48;26.0;53.2
78467;SHT31;67759;51.972;5.650;2023-09-12T05:19:18;26.0;52.2
78467;SHT31;67759;51.972;5.650;2023-09-12T05:21:47;26.0;52.4
78467;SHT31;67759;51.972;5.650;2023-09-12T05:24:17;26.0;52.4
78467;SHT31;67759;51.972;5.650;2023-09-12T05:26:47;26.0;52.6
78467;SHT31;67759;51.972;5.650;2023-09-12T05:29:17;25.9;52.6
78467;SHT31;67759;51.972;5.650;2023-09-12T05:31:46;25.9;51.5
78467;SHT31;67759;51.972;5.650;2023-09-12T05:34:16;25.8;53.4
78467;SHT31;67759;51.972;5.650;2023-09-12T05:36:46;25.8;54.8
78467;SHT31;67759;51.972;5.650;2023-09-12T05:39:16;25.8;54.6
78467;SHT31;67759;51.972;5.650;2023-09-12T05:41:46;25.8;52.5
78467;SHT31;67759;51.972;5.650;2023-09-12T05:44:16;25.8;55.6
78467;SHT31;67759;51.972;5.650;2023-09-12T05:46:47;25.8;53.8
78467;SHT31;67759;51.972;5.650;2023-09-12T05:49:19;25.8;53.6
78467;SHT31;67759;51.972;5.650;2023-09-12T05:51:50;25.8;54.4
78467;SHT31;67759;51.972;5.650;2023-09-12T05:54:20;25.9;54.4
78467;SHT31;67759;51.972;5.650;2023-09-12T05:56:49;26.0;54.7
78467;SHT31;67759;51.972;5.650;2023-09-12T05:59:21;26.1;55.9
78467;SHT31;67759;51.972;5.650;2023-09-12T06:01:50;26.2;53.7
78467;SHT31;67759;51.972;5.650;2023-09-12T06:04:20;26.3;52.7
78467;SHT31;67759;51.972;5.650;2023-09-12T06:06:50;26.4;52.7
78467;SHT31;67759;51.972;5.650;2023-09-12T06:09:19;26.4;53.3
78467;SHT31;67759;51.972;5.650;2023-09-12T06:11:49;26.5;54.9
78467;SHT31;67759;51.972;5.650;2023-09-12T06:14:18;26.6;54.1
78467;SHT31;67759;51.972;5.650;2023-09-12T06:16:48;26.7;53.7
78467;SHT31;67759;51.972;5.650;2023-09-12T06:19:19;26.7;54.8
78467;SHT31;67759;51.972;5.650;2023-09-12T06:21:51;26.7;54.8
78467;SHT31;67759;51.972;5.650;2023-09-12T06:24:23;26.7;55.2
78467;SHT31;67759;51.972;5.650;2023-09-12T06:26:54;26.7;54.9
78467;SHT31;67759;51.972;5.650;2023-09-12T06:29:25;26.7;54.8
78467;SHT31;67759;51.972;5.650;2023-09-12T06:31:58;26.7;54.7
78467;SHT31;67759;51.972;5.650;2023-09-12T06:34:30;26.7;53.0
78467;SHT31;67759;51.972;5.650;2023-09-12T06:37:02;26.7;54.1
78467;SHT31;67759;51.972;5.650;2023-09-12T06:39:31;26.7;52.4
78467;SHT31;67759;51.972;5.650;2023-09-12T06:42:01;26.7;54.3
78467;SHT31;67759;51.972;5.650;2023-09-12T06:44:31;26.7;55.5
78467;SHT31;67759;51.972;5.650;2023-09-12T06:47:03;26.7;54.1
78467;SHT31;67759;51.972;5.650;2023-09-12T06:49:32;26.7;53.9
78467;SHT31;67759;51.972;5.650;2023-09-12T06:52:05;26.7;55.0
78467;SHT31;67759;51.972;5.650;2023-09-12T06:54:37;26.7;55.3
78467;SHT31;67759;51.972;5.650;2023-09-12T06:57:06;26.8;55.4
78467;SHT31;67759;51.972;5.650;2023-09-12T06:59:35;26.8;52.9
78467;SHT31;67759;51.972;5.650;2023-09-12T07:02:05;26.9;54.6
78467;SHT31;67759;51.972;5.650;2023-09-12T07:04:37;26.9;55.2
78467;SHT31;67759;51.972;5.650;2023-09-12T07:07:07;27.0;55.3
78467;SHT31;67759;51.972;5.650;2023-09-12T07:09:37;27.0;54.7
78467;SHT31;67759;51.972;5.650;2023-09-12T07:12:08;27.0;54.3
78467;SHT31;67759;51.972;5.650;2023-09-12T07:14:38;26.9;54.4
78467;SHT31;67759;51.972;5.650;2023-09-12T07:17:09;26.9;56.0
78467;SHT31;67759;51.972;5.650;2023-09-12T07:19:38;26.9;55.1
78467;SHT31;67759;51.972;5.650;2023-09-12T07:22:08;27.0;55.2
78467;SHT31;67759;51.972;5.650;2023-09-12T07:24:37;27.0;54.1
78467;SHT31;67759;51.972;5.650;2023-09-12T07:27:07;27.0;53.8
78467;SHT31;67759;51.972;5.650;2023-09-12T07:29:38;27.1;53.7
78467;SHT31;67759;51.972;5.650;2023-09-12T07:32:11;27.1;54.8
78467;SHT31;67759;51.972;5.650;2023-09-12T07:34:40;27.2;53.8
78467;SHT31;67759;51.972;5.650;2023-09-12T07:37:15;27.3;55.1
78467;SHT31;67759;51.972;5.650;2023-09-12T07:39:44;27.3;52.5
78467;SHT31;67759;51.972;5.650;2023-09-12T07:42:14;27.4;54.1
78467;SHT31;67759;51.972;5.650;2023-09-12T07:44:44;27.4;54.1
78467;SHT31;67759;51.972;5.650;2023-09-12T07:47:16;27.5;53.0
78467;SHT31;67759;51.972;5.650;2023-09-12T07:49:45;27.6;53.4
78467;SHT31;67759;51.972;5.650;2023-09-12T07:52:17;27.8;53.7
78467;SHT31;67759;51.972;5.650;2023-09-12T07:54:49;27.8;52.7
78467;SHT31;67759;51.972;5.650;2023-09-12T07:57:24;27.9;53.0
78467;SHT31;67759;51.972;5.650;2023-09-12T07:59:54;27.9;51.3
78467;SHT31;67759;51.972;5.650;2023-09-12T08:02:23;28.0;52.9
78467;SHT31;67759;51.972;5.650;2023-09-12T08:04:53;28.0;52.2
78467;SHT31;67759;51.972;5.650;2023-09-12T08:07:22;28.0;53.8
78467;SHT31;67759;51.972;5.650;2023-09-12T08:09:54;28.0;52.7
78467;SHT31;67759;51.972;5.650;2023-09-12T08:12:26;28.1;53.3
78467;SHT31;67759;51.972;5.650;2023-09-12T08:14:56;28.1;53.4
78467;SHT31;67759;51.972;5.650;2023-09-12T08:17:27;28.1;52.6
78467;SHT31;67759;51.972;5.650;2023-09-12T08:19:57;28.1;52.5
78467;SHT31;67759;51.972;5.650;2023-09-12T08:22:27;28.1;52.1
78467;SHT31;67759;51.972;5.650;2023-09-12T08:24:56;28.1;51.6
78467;SHT31;67759;51.972;5.650;2023-09-12T08:27:26;28.1;52.2
78467;SHT31;67759;51.972;5.650;2023-09-12T08:29:55;28.1;52.7
78467;SHT31;67759;51.972;5.650;2023-09-12T08:32:25;28.0;52.6
78467;SHT31;67759;51.972;5.650;2023-09-12T08:34:55;28.0;52.2
78467;SHT31;67759;51.972;5.650;2023-09-12T08:37:24;27.9;52.2
78467;SHT31;67759;51.972;5.650;2023-09-12T08:39:54;27.9;53.6
78467;SHT31;67759;51.972;5.650;2023-09-12T08:42:27;27.8;54.0
78467;SHT31;67759;51.972;5.650;2023-09-12T08:44:59;27.8;52.8
78467;SHT31;67759;51.972;5.650;2023-09-12T08:47:32;27.9;53.3
78467;SHT31;67759;51.972;5.650;2023-09-12T08:50:07;28.0;53.4
78467;SHT31;67759;51.972;5.650;2023-09-12T08:52:38;28.2;52.7
78467;SHT31;67759;51.972;5.650;2023-09-12T08:55:09;28.3;51.8
78467;SHT31;67759;51.972;5.650;2023-09-12T08:57:41;28.4;52.3
78467;SHT31;67759;51.972;5.650;2023-09-12T09:00:12;28.6;51.2
78467;SHT31;67759;51.972;5.650;2023-09-12T09:02:43;28.6;50.1
78467;SHT31;67759;51.972;5.650;2023-09-12T09:05:16;28.6;50.1
78467;SHT31;67759;51.972;5.650;2023-09-12T09:07:46;28.7;50.3
78467;SHT31;67759;51.972;5.650;2023-09-12T09:10:17;28.7;50.7
78467;SHT31;67759;51.972;5.650;2023-09-12T09:12:48;28.7;50.2
78467;SHT31;67759;51.972;5.650;2023-09-12T09:15:28;28.8;49.9
78467;SHT31;67759;51.972;5.650;2023-09-12T09:17:58;28.8;49.7
78467;SHT31;67759;51.972;5.650;2023-09-12T09:20:34;28.9;50.5
78467;SHT31;67759;51.972;5.650;2023-09-12T09:23:10;28.9;50.8
78467;SHT31;67759;51.972;5.650;2023-09-12T09:25:43;29.1;49.7
78467;SHT31;67759;51.972;5.650;2023-09-12T09:28:21;29.4;49.0
78467;SHT31;67759;51.972;5.650;2023-09-12T09:30:52;29.7;48.6
78467;SHT31;67759;51.972;5.650;2023-09-12T09:33:23;29.8;48.2
78467;SHT31;67759;51.972;5.650;2023-09-12T09:36:06;29.9;47.9
78467;SHT31;67759;51.972;5.650;2023-09-12T09:38:39;30.0;47.5
78467;SHT31;67759;51.972;5.650;2023-09-12T09:41:12;30.2;46.7
78467;SHT31;67759;51.972;5.650;2023-09-12T09:43:43;30.3;46.9
78467;SHT31;67759;51.972;5.650;2023-09-12T09:46:17;30.4;46.3
78467;SHT31;67759;51.972;5.650;2023-09-12T09:48:51;30.5;45.8
78467;SHT31;67759;51.972;5.650;2023-09-12T09:51:21;30.4;46.5
78467;SHT31;67759;51.972;5.650;2023-09-12T09:53:53;30.4;46.3
78467;SHT31;67759;51.972;5.650;2023-09-12T09:56:26;30.4;46.5
78467;SHT31;67759;51.972;5.650;2023-09-12T09:58:57;30.5;46.9
78467;SHT31;67759;51.972;5.650;2023-09-12T10:01:28;30.5;46.2
78467;SHT31;67759;51.972;5.650;2023-09-12T10:04:00;30.5;46.5
78467;SHT31;67759;51.972;5.650;2023-09-12T10:06:35;30.5;46.5
78467;SHT31;67759;51.972;5.650;2023-09-12T10:09:09;30.5;46.4
78467;SHT31;67759;51.972;5.650;2023-09-12T10:11:40;30.5;46.8
78467;SHT31;67759;51.972;5.650;2023-09-12T10:14:13;30.4;47.5
78467;SHT31;67759;51.972;5.650;2023-09-12T10:16:46;30.4;48.7
78467;SHT31;67759;51.972;5.650;2023-09-12T10:19:21;30.5;47.0
78467;SHT31;67759;51.972;5.650;2023-09-12T10:22:00;30.5;47.3
78467;SHT31;67759;51.972;5.650;2023-09-12T10:24:33;30.6;46.1
78467;SHT31;67759;51.972;5.650;2023-09-12T10:27:05;30.7;46.5
78467;SHT31;67759;51.972;5.650;2023-09-12T10:29:36;30.8;46.1
78467;SHT31;67759;51.972;5.650;2023-09-12T10:32:06;30.9;46.9
78467;SHT31;67759;51.972;5.650;2023-09-12T10:34:37;31.1;46.1
78467;SHT31;67759;51.972;5.650;2023-09-12T10:37:12;31.3;45.2
78467;SHT31;67759;51.972;5.650;2023-09-12T10:39:45;31.5;44.5
78467;SHT31;67759;51.972;5.650;2023-09-12T10:42:16;31.6;45.7
78467;SHT31;67759;51.972;5.650;2023-09-12T10:44:49;31.6;44.5
78467;SHT31;67759;51.972;5.650;2023-09-12T10:47:22;31.7;44.0
78467;SHT31;67759;51.972;5.650;2023-09-12T10:49:53;31.8;44.9
78467;SHT31;67759;51.972;5.650;2023-09-12T10:52:26;31.9;43.9
78467;SHT31;67759;51.972;5.650;2023-09-12T10:54:57;32.1;43.8
78467;SHT31;67759;51.972;5.650;2023-09-12T10:57:29;32.4;43.3
78467;SHT31;67759;51.972;5.650;2023-09-12T11:00:14;32.6;42.9
78467;SHT31;67759;51.972;5.650;2023-09-12T11:02:45;32.9;42.2
78467;SHT31;67759;51.972;5.650;2023-09-12T11:05:36;33.2;40.9
78467;SHT31;67759;51.972;5.650;2023-09-12T11:08:08;33.4;40.6
78467;SHT31;67759;51.972;5.650;2023-09-12T11:10:37;33.6;40.2
78467;SHT31;67759;51.972;5.650;2023-09-12T11:13:18;33.7;40.5
78467;SHT31;67759;51.972;5.650;2023-09-12T11:16:14;33.7;41.1
78467;SHT31;67759;51.972;5.650;2023-09-12T11:19:14;33.8;41.2
78467;SHT31;67759;51.972;5.650;2023-09-12T11:21:47;33.8;40.0
78467;SHT31;67759;51.972;5.650;2023-09-12T11:24:19;33.7;39.7
78467;SHT31;67759;51.972;5.650;2023-09-12T11:26:57;33.5;40.7
78467;SHT31;67759;51.972;5.650;2023-09-12T11:29:36;33.4;41.4
78467;SHT31;67759;51.972;5.650;2023-09-12T11:32:07;33.5;40.3
78467;SHT31;67759;51.972;5.650;2023-09-12T11:34:40;33.5;40.2
78467;SHT31;67759;51.972;5.650;2023-09-12T11:37:24;33.5;40.4
78467;SHT31;67759;51.972;5.650;2023-09-12T11:39:54;33.5;40.7
78467;SHT31;67759;51.972;5.650;2023-09-12T11:42:25;33.5;40.7
78467;SHT31;67759;51.972;5.650;2023-09-12T11:44:56;33.5;40.8
78467;SHT31;67759;51.972;5.650;2023-09-12T11:47:27;33.7;41.6
78467;SHT31;67759;51.972;5.650;2023-09-12T11:49:58;33.9;41.7
78467;SHT31;67759;51.972;5.650;2023-09-12T11:52:30;34.3;40.8
78467;SHT31;67759;51.972;5.650;2023-09-12T11:55:00;34.6;39.6
78467;SHT31;67759;51.972;5.650;2023-09-12T11:57:31;34.9;39.4
78467;SHT31;67759;51.972;5.650;2023-09-12T12:00:02;35.1;39.4
78467;SHT31;67759;51.972;5.650;2023-09-12T12:02:36;35.2;39.0
78467;SHT31;67759;51.972;5.650;2023-09-12T12:05:07;35.3;38.9
78467;SHT31;67759;51.972;5.650;2023-09-12T12:07:37;35.4;38.0
78467;SHT31;67759;51.972;5.650;2023-09-12T12:10:10;35.5;37.8
78467;SHT31;67759;51.972;5.650;2023-09-12T12:12:42;35.5;38.1
78467;SHT31;67759;51.972;5.650;2023-09-12T12:15:13;35.5;37.2
78467;SHT31;67759;51.972;5.650;2023-09-12T12:17:43;35.4;36.7
78467;SHT31;67759;51.972;5.650;2023-09-12T12:20:13;35.2;38.1
78467;SHT31;67759;51.972;5.650;2023-09-12T12:22:43;35.1;37.7
78467;SHT31;67759;51.972;5.650;2023-09-12T12:25:14;35.1;37.2
78467;SHT31;67759;51.972;5.650;2023-09-12T12:27:44;35.1;38.3
78467;SHT31;67759;51.972;5.650;2023-09-12T12:30:14;35.1;37.7
78467;SHT31;67759;51.972;5.650;2023-09-12T12:32:46;35.2;38.2
78467;SHT31;67759;51.972;5.650;2023-09-12T12:35:21;35.4;36.5
78467;SHT31;67759;51.972;5.650;2023-09-12T12:37:54;35.7;35.7
78467;SHT31;67759;51.972;5.650;2023-09-12T12:40:25;35.9;35.9
78467;SHT31;67759;51.972;5.650;2023-09-12T12:42:55;36.0;36.4
78467;SHT31;67759;51.972;5.650;2023-09-12T12:45:25;36.0;35.7
78467;SHT31;67759;51.972;5.650;2023-09-12T12:47:57;36.1;35.6
78467;SHT31;67759;51.972;5.650;2023-09-12T12:50:28;36.2;35.3
78467;SHT31;67759;51.972;5.650;2023-09-12T12:52:58;36.3;34.8
78467;SHT31;67759;51.972;5.650;2023-09-12T12:55:27;36.3;33.7
78467;SHT31;67759;51.972;5.650;2023-09-12T12:57:58;36.3;33.7
78467;SHT31;67759;51.972;5.650;2023-09-12T13:00:27;36.2;34.1
78467;SHT31;67759;51.972;5.650;2023-09-12T13:02:57;36.2;34.2
78467;SHT31;67759;51.972;5.650;2023-09-12T13:05:28;36.2;34.7
78467;SHT31;67759;51.972;5.650;2023-09-12T13:08:02;36.3;35.1
78467;SHT31;67759;51.972;5.650;2023-09-12T13:10:32;36.3;34.9
78467;SHT31;67759;51.972;5.650;2023-09-12T13:13:03;36.4;35.1
78467;SHT31;67759;51.972;5.650;2023-09-12T13:15:33;36.6;34.1
78467;SHT31;67759;51.972;5.650;2023-09-12T13:18:04;36.7;33.0
78467;SHT31;67759;51.972;5.650;2023-09-12T13:20:33;36.9;33.3
78467;SHT31;67759;51.972;5.650;2023-09-12T13:23:03;37.1;31.7
78467;SHT31;67759;51.972;5.650;2023-09-12T13:25:33;37.1;31.3
78467;SHT31;67759;51.972;5.650;2023-09-12T13:28:02;37.1;32.2
78467;SHT31;67759;51.972;5.650;2023-09-12T13:30:32;37.0;32.3
78467;SHT31;67759;51.972;5.650;2023-09-12T13:33:04;37.0;31.5
78467;SHT31;67759;51.972;5.650;2023-09-12T13:35:34;37.0;31.8
78467;SHT31;67759;51.972;5.650;2023-09-12T13:38:04;37.1;33.0
78467;SHT31;67759;51.972;5.650;2023-09-12T13:40:39;37.2;33.3
78467;SHT31;67759;51.972;5.650;2023-09-12T13:43:09;37.2;32.7
78467;SHT31;67759;51.972;5.650;2023-09-12T13:45:39;37.2;33.1
78467;SHT31;67759;51.972;5.650;2023-09-12T13:48:09;37.3;34.0
78467;SHT31;67759;51.972;5.650;2023-09-12T13:50:39;37.4;33.4
78467;SHT31;67759;51.972;5.650;2023-09-12T13:53:16;37.5;33.1
78467;SHT31;67759;51.972;5.650;2023-09-12T13:55:45;37.6;31.7
78467;SHT31;67759;51.972;5.650;2023-09-12T13:58:16;37.5;32.1
78467;SHT31;67759;51.972;5.650;2023-09-12T14:00:45;37.5;32.4
78467;SHT31;67759;51.972;5.650;2023-09-12T14:03:15;37.5;32.1
78467;SHT31;67759;51.972;5.650;2023-09-12T14:05:45;37.5;31.6
78467;SHT31;67759;51.972;5.650;2023-09-12T14:08:14;37.5;31.9
78467;SHT31;67759;51.972;5.650;2023-09-12T14:10:44;37.5;32.5
78467;SHT31;67759;51.972;5.650;2023-09-12T14:13:15;37.5;33.1
78467;SHT31;67759;51.972;5.650;2023-09-12T14:15:45;37.5;32.3
78467;SHT31;67759;51.972;5.650;2023-09-12T14:18:17;37.5;32.5
78467;SHT31;67759;51.972;5.650;2023-09-12T14:20:48;37.5;32.7
78467;SHT31;67759;51.972;5.650;2023-09-12T14:23:21;37.5;32.4
78467;SHT31;67759;51.972;5.650;2023-09-12T14:25:51;37.5;32.5
78467;SHT31;67759;51.972;5.650;2023-09-12T14:28:21;37.5;33.1
78467;SHT31;67759;51.972;5.650;2023-09-12T14:30:53;37.5;32.3
78467;SHT31;67759;51.972;5.650;2023-09-12T14:33:22;37.4;32.2
78467;SHT31;67759;51.972;5.650;2023-09-12T14:35:52;37.3;32.5
78467;SHT31;67759;51.972;5.650;2023-09-12T14:38:21;37.1;33.0
78467;SHT31;67759;51.972;5.650;2023-09-12T14:40:52;37.1;33.7
78467;SHT31;67759;51.972;5.650;2023-09-12T14:43:22;37.0;32.7
78467;SHT31;67759;51.972;5.650;2023-09-12T14:45:54;36.9;32.9
78467;SHT31;67759;51.972;5.650;2023-09-12T14:48:25;36.8;32.3
78467;SHT31;67759;51.972;5.650;2023-09-12T14:50:56;36.6;33.1
78467;SHT31;67759;51.972;5.650;2023-09-12T14:53:31;36.5;33.9
78467;SHT31;67759;51.972;5.650;2023-09-12T14:56:02;36.4;34.4
78467;SHT31;67759;51.972;5.650;2023-09-12T14:58:31;36.3;34.7
78467;SHT31;67759;51.972;5.650;2023-09-12T15:01:01;36.2;34.3
78467;SHT31;67759;51.972;5.650;2023-09-12T15:03:31;36.1;34.5
78467;SHT31;67759;51.972;5.650;2023-09-12T15:06:04;36.1;34.4
78467;SHT31;67759;51.972;5.650;2023-09-12T15:08:34;36.1;34.7
78467;SHT31;67759;51.972;5.650;2023-09-12T15:11:04;36.1;34.7
78467;SHT31;67759;51.972;5.650;2023-09-12T15:13:34;36.1;34.1
78467;SHT31;67759;51.972;5.650;2023-09-12T15:16:11;36.1;34.7
78467;SHT31;67759;51.972;5.650;2023-09-12T15:18:51;36.2;34.7
78467;SHT31;67759;51.972;5.650;2023-09-12T15:21:20;36.3;34.7
78467;SHT31;67759;51.972;5.650;2023-09-12T15:23:52;36.3;34.4
78467;SHT31;67759;51.972;5.650;2023-09-12T15:26:24;36.4;34.0
78467;SHT31;67759;51.972;5.650;2023-09-12T15:28:54;36.4;33.9
78467;SHT31;67759;51.972;5.650;2023-09-12T15:31:23;36.3;34.0
78467;SHT31;67759;51.972;5.650;2023-09-12T15:33:53;36.3;34.3
78467;SHT31;67759;51.972;5.650;2023-09-12T15:36:25;36.3;34.0
78467;SHT31;67759;51.972;5.650;2023-09-12T15:38:54;36.3;34.8
78467;SHT31;67759;51.972;5.650;2023-09-12T15:41:25;36.3;35.5
78467;SHT31;67759;51.972;5.650;2023-09-12T15:43:55;36.3;35.7
78467;SHT31;67759;51.972;5.650;2023-09-12T15:46:26;36.3;35.8
78467;SHT31;67759;51.972;5.650;2023-09-12T15:48:56;36.3;36.2
78467;SHT31;67759;51.972;5.650;2023-09-12T15:51:25;36.4;36.4
78467;SHT31;67759;51.972;5.650;2023-09-12T15:53:56;36.6;35.7
78467;SHT31;67759;51.972;5.650;2023-09-12T15:56:26;36.8;35.3
78467;SHT31;67759;51.972;5.650;2023-09-12T15:58:55;36.9;34.9
78467;SHT31;67759;51.972;5.650;2023-09-12T16:01:25;37.0;35.0
78467;SHT31;67759;51.972;5.650;2023-09-12T16:03:58;37.1;34.7
78467;SHT31;67759;51.972;5.650;2023-09-12T16:06:28;37.1;34.7
78467;SHT31;67759;51.972;5.650;2023-09-12T16:08:57;37.1;34.3
78467;SHT31;67759;51.972;5.650;2023-09-12T16:11:27;37.1;34.4
78467;SHT31;67759;51.972;5.650;2023-09-12T16:13:57;37.1;34.1
78467;SHT31;67759;51.972;5.650;2023-09-12T16:16:27;37.0;34.0
78467;SHT31;67759;51.972;5.650;2023-09-12T16:18:58;36.8;34.4
78467;SHT31;67759;51.972;5.650;2023-09-12T16:21:28;36.6;34.3
78467;SHT31;67759;51.972;5.650;2023-09-12T16:23:58;36.4;34.8
78467;SHT31;67759;51.972;5.650;2023-09-12T16:26:29;36.3;35.0
78467;SHT31;67759;51.972;5.650;2023-09-12T16:29:00;36.2;35.3